Time;durP1;ratioP1;P1;durP2;ratioP2;P2;SDS_P1;SDS_P2;PMS_P1;PMS_P2;Temp;Humidity;BMP_temperature;BMP_pressure;BME280_temperature;BME280_humidity;BME280_pressure;Samples;Min_cycle;Max_cycle;Signal;HPM_P1;HPM_P2
2022/06/30 00:00:44;;;;;;;14.83;8.07;;;21.30;9.30;;;;;;5016167;28;20189;-73
2022/06/30 00:03:10;;;;;;;9.23;7.93;;;21.30;10.30;;;;;;5006479;28;20197;-73
2022/06/30 00:05:35;;;;;;;8.77;7.87;;;21.10;11.90;;;;;;4988496;28;20209;-73
2022/06/30 00:08:01;;;;;;;15.70;8.93;;;21.00;12.80;;;;;;5005747;28;20182;-73
2022/06/30 00:10:28;;;;;;;8.90;7.80;;;21.00;12.90;;;;;;4987091;28;20590;-73
2022/06/30 00:12:53;;;;;;;10.53;8.27;;;21.00;15.30;;;;;;5005477;28;20441;-74
2022/06/30 00:15:20;;;;;;;12.50;7.90;;;20.90;15.10;;;;;;5005339;28;20448;-73
2022/06/30 00:17:45;;;;;;;8.97;7.40;;;21.00;15.90;;;;;;5005784;28;20178;-73
2022/06/30 00:20:11;;;;;;;9.03;7.90;;;20.90;17.20;;;;;;5004795;28;20943;-73
2022/06/30 00:22:36;;;;;;;11.53;7.60;;;20.90;17.00;;;;;;5004957;28;20198;-73
2022/06/30 00:25:03;;;;;;;14.30;8.43;;;20.90;18.60;;;;;;5005839;28;20320;-74
2022/06/30 00:27:28;;;;;;;11.17;7.33;;;20.80;19.00;;;;;;5002839;28;20183;-74
2022/06/30 00:29:54;;;;;;;12.77;7.50;;;20.80;18.30;;;;;;4988633;28;21247;-73
2022/06/30 00:32:19;;;;;;;12.27;7.90;;;20.80;20.20;;;;;;5005579;28;20676;-73
2022/06/30 00:34:45;;;;;;;14.30;7.90;;;20.80;20.40;;;;;;5006441;28;20228;-73
2022/06/30 00:37:11;;;;;;;8.67;7.77;;;20.80;21.10;;;;;;5009614;28;20597;-73
2022/06/30 00:39:36;;;;;;;11.90;8.50;;;20.70;22.30;;;;;;5005080;28;20177;-74
2022/06/30 00:42:06;;;;;;;9.13;8.20;;;20.70;20.90;;;;;;4985222;28;20178;-73
2022/06/30 00:44:32;;;;;;;9.70;8.00;;;20.70;22.30;;;;;;5018325;28;20201;-73
2022/06/30 00:46:58;;;;;;;10.83;7.60;;;20.70;23.70;;;;;;4991526;28;20425;-73
2022/06/30 00:49:24;;;;;;;9.33;7.47;;;20.60;22.80;;;;;;5004957;28;20178;-73
2022/06/30 00:51:49;;;;;;;11.43;8.00;;;20.60;25.20;;;;;;5005549;28;20281;-73
2022/06/30 00:54:16;;;;;;;10.20;7.73;;;20.50;24.60;;;;;;4986550;28;20251;-76
2022/06/30 00:56:46;;;;;;;8.90;8.00;;;20.50;25.60;;;;;;5007016;28;20568;-73
2022/06/30 00:59:14;;;;;;;11.10;7.80;;;20.40;26.00;;;;;;4999207;28;20436;-73
2022/06/30 01:01:42;;;;;;;11.00;8.43;;;20.40;27.60;;;;;;5002818;28;20470;-73
2022/06/30 01:04:08;;;;;;;8.83;7.63;;;20.40;27.80;;;;;;5005820;28;20460;-73
2022/06/30 01:06:36;;;;;;;9.37;7.80;;;20.40;28.10;;;;;;4988842;28;20469;-73
2022/06/30 01:09:02;;;;;;;16.57;8.43;;;20.40;30.20;;;;;;4985465;28;20524;-73
2022/06/30 01:14:14;;;;;;;9.83;8.30;;;20.40;30.80;;;;;;5000078;28;20467;-73
2022/06/30 01:16:40;;;;;;;10.07;8.20;;;20.40;29.80;;;;;;5002960;28;20472;-73
2022/06/30 01:19:06;;;;;;;10.70;7.53;;;20.30;29.70;;;;;;5005074;28;20432;-73
2022/06/30 01:21:31;;;;;;;9.63;7.80;;;20.30;30.30;;;;;;4987966;28;20188;-74
2022/06/30 01:23:58;;;;;;;10.30;8.17;;;20.20;32.00;;;;;;4988259;28;20735;-74
2022/06/30 01:26:24;;;;;;;10.47;8.17;;;20.20;33.50;;;;;;5005846;28;20170;-73
2022/06/30 01:28:51;;;;;;;9.80;8.23;;;20.20;33.70;;;;;;4999305;28;20452;-74
2022/06/30 01:31:17;;;;;;;10.80;7.77;;;20.00;34.40;;;;;;5009847;28;20469;-73
2022/06/30 01:33:44;;;;;;;11.17;8.37;;;20.00;37.80;;;;;;5008557;28;20784;-73
2022/06/30 01:36:10;;;;;;;8.70;7.80;;;20.00;40.60;;;;;;5010820;28;20918;-73
2022/06/30 01:38:35;;;;;;;9.43;7.63;;;20.00;40.10;;;;;;5010380;28;20555;-73
2022/06/30 01:41:01;;;;;;;12.60;8.23;;;20.00;43.00;;;;;;4991009;28;20281;-73
2022/06/30 01:43:27;;;;;;;12.50;8.00;;;20.00;46.40;;;;;;5006877;28;20508;-73
2022/06/30 01:45:53;;;;;;;9.07;8.17;;;20.00;45.60;;;;;;5004513;28;20281;-73
2022/06/30 01:48:18;;;;;;;11.87;8.57;;;20.90;41.70;;;;;;5009016;28;20182;-73
2022/06/30 01:50:44;;;;;;;8.97;8.07;;;20.00;41.80;;;;;;5008558;28;20690;-73
2022/06/30 01:53:09;;;;;;;17.13;8.70;;;19.80;46.10;;;;;;5008519;28;20181;-73
2022/06/30 01:55:35;;;;;;;12.03;8.53;;;19.80;46.10;;;;;;5008155;28;20217;-74
2022/06/30 01:58:00;;;;;;;9.97;8.70;;;19.80;46.30;;;;;;5008220;28;20185;-73
2022/06/30 02:00:27;;;;;;;9.40;8.40;;;19.80;46.30;;;;;;5016573;28;20614;-73
2022/06/30 02:02:54;;;;;;;11.77;7.63;;;19.80;46.10;;;;;;5008527;28;20284;-73
2022/06/30 02:05:20;;;;;;;9.67;8.13;;;19.90;46.30;;;;;;4990951;28;20995;-73
2022/06/30 02:07:46;;;;;;;11.90;8.70;;;19.80;46.20;;;;;;5007117;28;20492;-73
2022/06/30 02:10:15;;;;;;;9.93;8.70;;;19.70;46.10;;;;;;4989465;28;20458;-73
2022/06/30 02:12:47;;;;;;;9.97;8.83;;;19.70;46.20;;;;;;4990584;28;20531;-73
2022/06/30 02:15:24;;;;;;;12.20;8.47;;;19.60;46.00;;;;;;5007344;28;20470;-73
2022/06/30 02:17:52;;;;;;;11.53;8.77;;;19.70;46.10;;;;;;5008683;28;20600;-73
2022/06/30 02:20:23;;;;;;;10.20;8.80;;;19.60;46.00;;;;;;5008391;28;20437;-73
2022/06/30 02:22:52;;;;;;;19.13;8.60;;;19.60;46.10;;;;;;4991007;28;20567;-73
2022/06/30 02:25:18;;;;;;;17.77;8.83;;;19.50;45.90;;;;;;5004739;28;20465;-73
2022/06/30 02:27:43;;;;;;;10.07;8.50;;;19.50;46.00;;;;;;5006925;28;20455;-73
2022/06/30 02:30:09;;;;;;;12.53;9.30;;;19.50;46.00;;;;;;5006312;28;20361;-73
2022/06/30 02:32:35;;;;;;;12.47;8.73;;;19.50;46.00;;;;;;5007730;28;20315;-73
2022/06/30 02:35:02;;;;;;;12.73;8.43;;;19.50;46.10;;;;;;5008095;28;20610;-73
2022/06/30 02:37:27;;;;;;;10.87;8.90;;;19.50;46.00;;;;;;5005944;28;20183;-73
2022/06/30 02:39:53;;;;;;;10.17;8.63;;;19.50;46.00;;;;;;5005527;28;20444;-73
2022/06/30 02:42:19;;;;;;;10.30;8.10;;;19.50;46.00;;;;;;4990254;28;20797;-73
2022/06/30 02:44:44;;;;;;;10.20;8.50;;;19.50;46.00;;;;;;5008380;28;20198;-73
2022/06/30 02:47:10;;;;;;;9.80;8.53;;;19.50;46.10;;;;;;5006614;28;20441;-73
2022/06/30 02:49:37;;;;;;;11.33;8.30;;;19.50;46.00;;;;;;5006030;28;20207;-74
2022/06/30 02:52:03;;;;;;;11.77;8.93;;;19.50;46.00;;;;;;5007383;28;20171;-74
2022/06/30 02:54:28;;;;;;;11.43;9.53;;;19.40;47.50;;;;;;5007276;28;20483;-73
2022/06/30 02:56:54;;;;;;;11.60;8.97;;;19.40;50.70;;;;;;4993753;28;20185;-73
2022/06/30 02:59:19;;;;;;;13.10;9.63;;;19.50;54.70;;;;;;5004310;28;20174;-73
2022/06/30 03:01:45;;;;;;;12.70;9.50;;;19.50;53.00;;;;;;5008673;28;20186;-74
2022/06/30 03:04:11;;;;;;;12.13;9.63;;;19.40;51.00;;;;;;5007722;28;20679;-73
2022/06/30 03:06:36;;;;;;;13.60;9.37;;;19.40;46.20;;;;;;4988585;28;21487;-74
2022/06/30 03:09:03;;;;;;;12.73;9.60;;;19.30;50.00;;;;;;4986698;28;20201;-73
2022/06/30 03:11:28;;;;;;;14.60;9.17;;;19.20;52.70;;;;;;5007237;28;20174;-73
2022/06/30 03:13:54;;;;;;;9.97;8.97;;;19.10;56.50;;;;;;5008995;28;21252;-73
2022/06/30 03:16:20;;;;;;;13.13;9.30;;;19.30;58.10;;;;;;5001256;28;20186;-73
2022/06/30 03:18:46;;;;;;;13.60;9.60;;;19.00;60.60;;;;;;5005662;28;20602;-74
2022/06/30 03:21:12;;;;;;;11.60;8.40;;;19.00;59.00;;;;;;5005997;28;20190;-73
2022/06/30 03:23:38;;;;;;;10.47;9.30;;;19.00;60.20;;;;;;5006185;28;20811;-74
2022/06/30 03:26:04;;;;;;;13.13;9.30;;;19.00;61.10;;;;;;4988441;28;20468;-73
2022/06/30 03:28:30;;;;;;;14.10;9.23;;;19.00;61.80;;;;;;5015552;28;20645;-74
2022/06/30 03:30:56;;;;;;;11.53;9.20;;;19.00;59.70;;;;;;5012727;28;20508;-73
2022/06/30 03:33:21;;;;;;;12.93;9.30;;;19.00;60.90;;;;;;4982261;28;20645;-74
2022/06/30 03:35:47;;;;;;;12.40;9.00;;;19.00;59.20;;;;;;5005399;28;20202;-73
2022/06/30 03:38:13;;;;;;;12.00;9.43;;;19.00;58.90;;;;;;5001703;28;20653;-73
2022/06/30 03:40:40;;;;;;;13.60;9.50;;;19.00;58.70;;;;;;5005753;28;20244;-73
2022/06/30 03:43:06;;;;;;;12.43;9.67;;;19.00;59.60;;;;;;4989867;28;20899;-73
2022/06/30 03:45:33;;;;;;;11.93;9.40;;;19.00;59.10;;;;;;4988762;28;20839;-73
2022/06/30 03:48:03;;;;;;;11.80;9.37;;;19.00;58.10;;;;;;5005731;28;20561;-73
2022/06/30 03:50:30;;;;;;;10.63;9.53;;;19.00;62.70;;;;;;5006253;28;20437;-73
2022/06/30 03:52:56;;;;;;;12.90;10.40;;;19.10;65.80;;;;;;5005265;28;20437;-73
2022/06/30 03:55:23;;;;;;;15.60;10.00;;;19.00;66.50;;;;;;5004840;28;20464;-73
2022/06/30 03:57:48;;;;;;;14.43;10.00;;;19.00;65.20;;;;;;5009583;28;20413;-73
2022/06/30 04:00:14;;;;;;;14.83;9.40;;;19.00;64.00;;;;;;5022226;28;20424;-73
2022/06/30 04:02:40;;;;;;;11.53;10.30;;;19.10;63.00;;;;;;5006528;28;20233;-73
2022/06/30 04:05:06;;;;;;;16.93;9.67;;;19.10;64.20;;;;;;5005263;28;20260;-73
2022/06/30 04:07:31;;;;;;;12.27;9.10;;;19.20;65.00;;;;;;5005641;28;20189;-73
2022/06/30 04:09:57;;;;;;;11.87;9.83;;;19.20;63.40;;;;;;5004292;28;20437;-73
2022/06/30 04:12:23;;;;;;;11.53;9.63;;;19.20;62.30;;;;;;4988362;28;20178;-73
2022/06/30 04:14:48;;;;;;;12.17;9.60;;;19.30;63.80;;;;;;5006385;28;20284;-73
2022/06/30 04:17:14;;;;;;;12.80;9.50;;;19.30;63.70;;;;;;5005320;28;20197;-73
2022/06/30 04:19:39;;;;;;;11.77;9.90;;;19.40;63.00;;;;;;4983361;28;20197;-73
2022/06/30 04:22:05;;;;;;;10.17;9.07;;;19.60;60.60;;;;;;5005849;28;20182;-73
2022/06/30 04:24:30;;;;;;;13.10;8.97;;;19.60;58.10;;;;;;5005275;28;20221;-73
2022/06/30 04:26:56;;;;;;;12.93;9.67;;;19.60;54.60;;;;;;5009633;28;20228;-73
2022/06/30 04:29:21;;;;;;;14.87;9.60;;;19.70;46.30;;;;;;5021387;28;20611;-73
2022/06/30 04:34:31;;;;;;;12.43;8.87;;;19.80;52.80;;;;;;5006220;28;20762;-73
2022/06/30 04:36:57;;;;;;;11.80;8.70;;;19.90;49.60;;;;;;5005248;28;20453;-73
2022/06/30 04:39:22;;;;;;;11.93;9.50;;;20.00;52.80;;;;;;5004087;28;20209;-73
2022/06/30 04:41:48;;;;;;;10.63;9.53;;;20.10;46.50;;;;;;4985143;28;20201;-73
2022/06/30 04:44:14;;;;;;;11.43;9.00;;;20.10;46.60;;;;;;5005161;28;20297;-73
2022/06/30 04:46:39;;;;;;;10.27;9.17;;;20.20;46.60;;;;;;5004591;28;20193;-73
2022/06/30 04:49:05;;;;;;;11.07;8.97;;;20.30;46.70;;;;;;5004652;28;20540;-73
2022/06/30 04:51:31;;;;;;;12.40;9.20;;;20.40;46.80;;;;;;5003776;28;20559;-74
2022/06/30 04:53:56;;;;;;;10.30;9.20;;;20.40;46.70;;;;;;5006246;28;20186;-73
2022/06/30 04:56:22;;;;;;;16.13;9.00;;;20.50;46.80;;;;;;5005960;28;20189;-73
2022/06/30 04:58:48;;;;;;;14.33;9.23;;;20.50;46.80;;;;;;5018841;28;20256;-73
2022/06/30 05:01:13;;;;;;;9.90;8.20;;;20.50;46.80;;;;;;5004120;28;20192;-73
2022/06/30 05:03:39;;;;;;;13.77;8.90;;;20.60;46.90;;;;;;4988985;28;20197;-73
2022/06/30 05:06:05;;;;;;;12.33;8.67;;;20.60;46.90;;;;;;5006618;28;20214;-74
2022/06/30 05:08:32;;;;;;;13.67;8.00;;;20.70;47.00;;;;;;5010945;28;20545;-73
2022/06/30 05:10:58;;;;;;;11.70;9.07;;;20.80;47.10;;;;;;5010089;28;20244;-74
2022/06/30 05:13:24;;;;;;;11.63;8.23;;;20.80;47.00;;;;;;5011156;28;20428;-73
2022/06/30 05:15:50;;;;;;;10.70;8.47;;;20.80;47.00;;;;;;5009916;28;20953;-73
2022/06/30 05:18:15;;;;;;;11.10;7.90;;;20.90;47.10;;;;;;5010795;28;20408;-73
2022/06/30 05:20:42;;;;;;;12.60;9.10;;;21.00;47.10;;;;;;5009927;28;20189;-73
2022/06/30 05:23:08;;;;;;;12.43;8.60;;;21.10;47.40;;;;;;4992295;28;20650;-74
2022/06/30 05:28:18;;;;;;;13.47;7.70;;;21.40;37.10;;;;;;5016437;28;20482;-78
2022/06/30 05:30:44;;;;;;;15.40;8.37;;;21.60;30.00;;;;;;5008933;28;20436;-77
2022/06/30 05:33:10;;;;;;;9.60;8.60;;;21.80;27.00;;;;;;5008983;28;20442;-77
2022/06/30 05:35:35;;;;;;;11.60;8.70;;;21.80;25.50;;;;;;5006053;28;20522;-79
2022/06/30 05:38:01;;;;;;;10.10;8.13;;;21.90;27.00;;;;;;5010192;28;20181;-78
2022/06/30 05:40:29;;;;;;;15.10;8.10;;;22.00;22.20;;;;;;5009990;28;20277;-77
2022/06/30 05:42:54;;;;;;;9.20;7.70;;;22.10;21.50;;;;;;5009852;28;20194;-78
2022/06/30 05:45:20;;;;;;;11.80;8.40;;;22.20;20.10;;;;;;5009978;28;20475;-77
2022/06/30 05:47:46;;;;;;;14.67;7.70;;;22.30;21.00;;;;;;5010666;28;20201;-78
2022/06/30 05:50:13;;;;;;;14.93;7.60;;;22.40;19.10;;;;;;5009085;28;20645;-77
2022/06/30 05:52:39;;;;;;;12.90;8.10;;;22.40;20.80;;;;;;4991230;28;20440;-78
2022/06/30 05:55:06;;;;;;;10.47;8.10;;;22.50;20.70;;;;;;5005432;28;20452;-78
2022/06/30 05:57:31;;;;;;;10.70;8.33;;;22.60;17.20;;;;;;5007135;28;20174;-78
2022/06/30 05:59:57;;;;;;;10.93;8.10;;;23.30;16.60;;;;;;5012088;28;20941;-78
2022/06/30 06:02:22;;;;;;;9.73;7.37;;;22.80;14.30;;;;;;5022252;28;20667;-77
2022/06/30 06:04:47;;;;;;;9.90;7.70;;;22.90;12.20;;;;;;5009126;28;20208;-78
2022/06/30 06:07:13;;;;;;;11.97;7.57;;;23.00;9.70;;;;;;5008969;28;20634;-78
2022/06/30 06:09:39;;;;;;;12.93;7.83;;;23.10;6.70;;;;;;5005055;28;20212;-73
2022/06/30 06:12:05;;;;;;;12.80;8.27;;;23.20;7.40;;;;;;4992006;28;20166;-73
2022/06/30 06:14:30;;;;;;;11.60;8.10;;;23.20;4.80;;;;;;5010495;28;20209;-73
2022/06/30 06:16:55;;;;;;;9.77;7.23;;;23.30;3.60;;;;;;5010044;28;20275;-72
2022/06/30 06:19:22;;;;;;;13.13;7.47;;;23.40;1.00;;;;;;5010335;28;20453;-72
2022/06/30 06:21:48;;;;;;;9.50;7.30;;;23.40;1.00;;;;;;5009626;28;20170;-73
2022/06/30 06:24:14;;;;;;;14.13;7.87;;;23.50;1.00;;;;;;4992710;28;20514;-72
2022/06/30 06:26:40;;;;;;;8.60;6.90;;;23.50;1.00;;;;;;5011440;28;20425;-73
2022/06/30 06:29:05;;;;;;;10.07;7.30;;;23.60;1.00;;;;;;5023713;28;20676;-72
2022/06/30 06:31:32;;;;;;;12.17;7.40;;;23.70;1.00;;;;;;4991052;28;20182;-73
2022/06/30 06:33:58;;;;;;;13.33;7.23;;;23.80;1.00;;;;;;5009352;28;20281;-73
2022/06/30 06:36:24;;;;;;;13.30;7.03;;;24.00;1.00;;;;;;5010468;28;20508;-73
2022/06/30 06:38:49;;;;;;;9.33;6.93;;;24.70;1.00;;;;;;5010008;28;20293;-73
2022/06/30 06:41:15;;;;;;;11.20;7.80;;;24.20;1.00;;;;;;5009030;28;20506;-73
2022/06/30 06:43:41;;;;;;;11.10;7.50;;;24.30;1.00;;;;;;5010818;28;20881;-73
2022/06/30 06:46:06;;;;;;;13.10;6.90;;;24.40;1.00;;;;;;5009339;28;20217;-73
2022/06/30 06:48:32;;;;;;;10.77;7.50;;;24.50;1.00;;;;;;5007029;28;20542;-73
2022/06/30 06:50:57;;;;;;;8.60;6.80;;;24.70;1.00;;;;;;4973413;28;20276;-73
2022/06/30 06:53:23;;;;;;;8.73;6.83;;;24.60;1.00;;;;;;5009560;28;20209;-73
2022/06/30 06:55:49;;;;;;;9.20;6.27;;;24.70;1.00;;;;;;5015887;28;20209;-73
2022/06/30 06:58:14;;;;;;;9.87;6.63;;;24.70;1.00;;;;;;5018336;28;20185;-73
2022/06/30 07:00:40;;;;;;;11.97;7.50;;;24.90;1.00;;;;;;5016554;28;20254;-72
2022/06/30 07:03:05;;;;;;;9.13;6.60;;;24.90;1.00;;;;;;5008804;28;20202;-73
2022/06/30 07:05:31;;;;;;;7.67;6.67;;;24.90;1.00;;;;;;5009035;28;20213;-73
2022/06/30 07:08:00;;;;;;;8.60;7.13;;;25.10;1.00;;;;;;5008355;28;20216;-73
2022/06/30 07:10:27;;;;;;;7.37;6.60;;;25.20;1.00;;;;;;5009505;28;20162;-73
2022/06/30 07:12:53;;;;;;;10.03;7.17;;;25.30;1.00;;;;;;5009362;28;20783;-73
2022/06/30 07:15:21;;;;;;;11.70;6.90;;;25.50;1.00;;;;;;5008955;28;20457;-73
2022/06/30 07:17:47;;;;;;;8.60;6.70;;;25.50;1.00;;;;;;5007751;28;20186;-73
2022/06/30 07:20:13;;;;;;;10.60;7.03;;;25.70;1.00;;;;;;5009062;28;20512;-73
2022/06/30 07:22:38;;;;;;;8.43;6.90;;;25.80;1.00;;;;;;5008606;28;20540;-73
2022/06/30 07:25:05;;;;;;;8.63;6.30;;;25.80;1.00;;;;;;5007984;28;20292;-73
2022/06/30 07:27:31;;;;;;;10.80;6.40;;;26.00;1.00;;;;;;4990414;28;20250;-73
2022/06/30 07:29:56;;;;;;;8.93;5.73;;;26.20;1.00;;;;;;5022774;28;21077;-73
2022/06/30 07:32:22;;;;;;;8.07;6.10;;;26.40;1.00;;;;;;5007857;28;20178;-74
2022/06/30 07:34:47;;;;;;;9.53;6.50;;;26.50;1.00;;;;;;5008843;28;20324;-73
2022/06/30 07:37:13;;;;;;;9.77;6.67;;;26.60;1.00;;;;;;5007624;28;20229;-73
2022/06/30 07:39:39;;;;;;;8.77;6.43;;;26.80;1.00;;;;;;5007970;28;20602;-73
2022/06/30 07:42:05;;;;;;;12.03;7.10;;;27.10;1.00;;;;;;5006301;28;20241;-73
2022/06/30 07:44:30;;;;;;;7.40;6.70;;;27.00;1.00;;;;;;4990935;28;20186;-73
2022/06/30 07:46:56;;;;;;;9.73;6.33;;;27.10;1.00;;;;;;5007234;28;20178;-73
2022/06/30 07:49:22;;;;;;;8.97;6.60;;;27.40;1.00;;;;;;5007623;28;20178;-73
2022/06/30 07:51:48;;;;;;;8.40;6.30;;;27.80;1.00;;;;;;5007439;28;20186;-74
2022/06/30 07:54:14;;;;;;;8.50;6.83;;;28.10;1.00;;;;;;4989987;28;20264;-73
2022/06/30 07:56:39;;;;;;;7.70;5.80;;;28.20;1.00;;;;;;4987628;28;20189;-73
2022/06/30 07:59:05;;;;;;;12.73;5.90;;;28.40;1.00;;;;;;5021865;28;20177;-74
2022/06/30 08:01:31;;;;;;;10.47;5.20;;;29.10;1.00;;;;;;5010676;28;20189;-73
2022/06/30 08:03:57;;;;;;;9.93;5.63;;;28.90;1.00;;;;;;5007357;28;20214;-74
2022/06/30 08:06:24;;;;;;;9.47;5.03;;;29.10;1.00;;;;;;5008758;28;20198;-73
2022/06/30 08:08:50;;;;;;;7.43;5.50;;;29.30;1.00;;;;;;5007099;28;20178;-74
2022/06/30 08:11:16;;;;;;;8.77;5.83;;;29.50;1.00;;;;;;5008021;28;20198;-74
2022/06/30 08:13:41;;;;;;;7.43;5.47;;;29.60;1.00;;;;;;5007709;28;20637;-74
2022/06/30 08:16:07;;;;;;;7.10;5.20;;;29.60;1.00;;;;;;5007848;28;20238;-74
2022/06/30 08:18:33;;;;;;;7.87;5.30;;;29.60;1.00;;;;;;5006678;28;20564;-74
2022/06/30 08:20:59;;;;;;;7.67;4.80;;;29.90;1.00;;;;;;5007637;28;20174;-75
2022/06/30 08:23:24;;;;;;;9.23;4.97;;;29.80;1.00;;;;;;5007010;28;20193;-74
2022/06/30 08:25:50;;;;;;;5.88;5.10;;;29.90;1.00;;;;;;5008096;28;20537;-74
2022/06/30 08:28:15;;;;;;;7.90;4.72;;;30.30;1.00;;;;;;5010428;28;20583;-74
2022/06/30 08:30:41;;;;;;;6.82;4.70;;;30.50;1.00;;;;;;5001533;28;20174;-74
2022/06/30 08:33:07;;;;;;;7.72;4.85;;;30.80;1.00;;;;;;5001603;28;20175;-74
2022/06/30 08:35:32;;;;;;;6.00;4.85;;;30.90;1.00;;;;;;5007628;28;20711;-74
2022/06/30 08:37:58;;;;;;;5.53;4.57;;;30.90;1.00;;;;;;5006631;28;20193;-74
2022/06/30 08:43:11;;;;;;;7.00;4.78;;;30.70;1.00;;;;;;5011735;28;20282;-74
2022/06/30 08:45:37;;;;;;;5.57;5.03;;;30.70;1.00;;;;;;5007035;28;20588;-74
2022/06/30 08:48:03;;;;;;;7.97;4.65;;;31.10;1.00;;;;;;4989263;28;20237;-74
2022/06/30 08:50:29;;;;;;;7.05;4.60;;;31.30;1.00;;;;;;5006859;28;20196;-74
2022/06/30 08:52:57;;;;;;;6.28;4.93;;;31.50;1.00;;;;;;5005123;28;20226;-74
2022/06/30 08:55:29;;;;;;;6.20;5.05;;;31.80;1.00;;;;;;5013672;28;20210;-74
2022/06/30 08:58:00;;;;;;;11.35;4.60;;;32.00;1.00;;;;;;5013753;28;20669;-74
2022/06/30 09:00:26;;;;;;;7.22;4.80;;;32.10;1.00;;;;;;4993141;28;20244;-74
2022/06/30 09:02:52;;;;;;;6.90;4.63;;;32.30;1.00;;;;;;5006352;28;20577;-74
2022/06/30 09:05:17;;;;;;;8.90;5.03;;;32.40;1.00;;;;;;4989023;28;20203;-74
2022/06/30 09:07:43;;;;;;;8.05;4.63;;;32.60;1.00;;;;;;5005975;28;20182;-74
2022/06/30 09:10:08;;;;;;;8.70;4.65;;;33.10;1.00;;;;;;5008257;28;20542;-75
2022/06/30 09:12:34;;;;;;;9.30;4.90;;;33.60;1.00;;;;;;4988736;28;20186;-74
2022/06/30 09:15:00;;;;;;;4.82;4.32;;;34.20;1.00;;;;;;5008248;28;20262;-74
2022/06/30 09:17:27;;;;;;;5.32;4.60;;;35.30;1.00;;;;;;5005092;28;20182;-75
2022/06/30 09:20:10;;;;;;;6.97;5.03;;;36.60;1.00;;;;;;5008738;28;20206;-75
2022/06/30 09:22:37;;;;;;;5.63;4.60;;;37.50;1.00;;;;;;5003403;28;20205;-75
2022/06/30 09:25:11;;;;;;;6.15;3.95;;;38.70;1.00;;;;;;5006931;28;20631;-75
2022/06/30 09:27:39;;;;;;;6.25;3.80;;;39.20;1.00;;;;;;5013025;28;20566;-75
2022/06/30 09:30:09;;;;;;;5.78;3.80;;;39.30;1.00;;;;;;5007230;28;20661;-75
2022/06/30 09:33:10;;;;;;;8.20;4.25;;;39.50;1.00;;;;;;5007543;28;20197;-76
2022/06/30 09:35:38;;;;;;;11.68;4.43;;;39.80;1.00;;;;;;4905301;29;20261;-75
2022/06/30 09:38:09;;;;;;;6.80;3.85;;;40.30;1.00;;;;;;4988552;28;20210;-75
2022/06/30 09:41:01;;;;;;;6.43;3.60;;;40.80;1.00;;;;;;5006980;28;20548;-75
2022/06/30 09:43:31;;;;;;;7.53;3.42;;;41.10;1.00;;;;;;5004781;28;20206;-76
2022/06/30 09:45:57;;;;;;;8.98;3.83;;;41.60;1.00;;;;;;4994619;28;20270;-76
2022/06/30 09:48:26;;;;;;;5.22;3.55;;;41.80;1.00;;;;;;5008652;28;20178;-76
2022/06/30 09:51:03;;;;;;;4.30;3.10;;;42.00;1.00;;;;;;5006972;28;20261;-76
2022/06/30 09:53:29;;;;;;;4.85;2.90;;;41.60;1.00;;;;;;5009677;28;20173;-75
2022/06/30 09:55:55;;;;;;;3.20;2.65;;;42.00;1.00;;;;;;4992405;28;20225;-76
2022/06/30 09:58:29;;;;;;;4.38;2.78;;;41.70;1.00;;;;;;5015781;28;20262;-76
2022/06/30 10:00:54;;;;;;;4.63;2.85;;;41.90;1.00;;;;;;5011502;28;20174;-75
2022/06/30 10:03:21;;;;;;;5.22;2.88;;;42.30;1.00;;;;;;5009985;28;20208;-76
2022/06/30 10:05:49;;;;;;;6.60;3.05;;;43.30;1.00;;;;;;5014983;28;20561;-77
2022/06/30 10:08:17;;;;;;;5.22;3.20;;;42.90;1.00;;;;;;5020636;28;20248;-76
2022/06/30 10:10:43;;;;;;;3.75;2.90;;;41.40;1.00;;;;;;5010118;28;20264;-75
2022/06/30 10:13:16;;;;;;;7.18;3.88;;;40.40;1.00;;;;;;5009353;28;20205;-75
2022/06/30 10:15:47;;;;;;;4.88;3.50;;;39.50;1.00;;;;;;5005259;28;20351;-76
2022/06/30 10:18:15;;;;;;;5.50;3.80;;;38.80;1.00;;;;;;4993571;28;20182;-75
2022/06/30 10:20:41;;;;;;;5.68;3.55;;;39.40;1.00;;;;;;4992152;28;20181;-74
2022/06/30 10:23:10;;;;;;;4.22;3.35;;;39.90;1.00;;;;;;5008796;28;20213;-75
2022/06/30 10:25:36;;;;;;;6.03;3.80;;;41.20;1.00;;;;;;5005361;28;20202;-76
2022/06/30 10:28:03;;;;;;;6.00;3.10;;;42.50;1.00;;;;;;5003256;28;20616;-76
2022/06/30 10:31:01;;;;;;;6.00;3.40;;;43.50;1.00;;;;;;5025561;28;20223;-76
2022/06/30 10:33:37;;;;;;;9.82;4.00;;;44.60;1.00;;;;;;4984020;28;20308;-77
2022/06/30 10:36:31;;;;;;;8.15;3.90;;;44.20;1.00;;;;;;5009857;28;20202;-76
2022/06/30 10:39:20;;;;;;;5.00;3.58;;;44.00;1.00;;;;;;5008899;28;20205;-76
2022/06/30 10:41:47;;;;;;;7.90;3.70;;;43.90;1.00;;;;;;5008755;28;20186;-76
2022/06/30 10:44:19;;;;;;;6.07;4.22;;;44.30;1.00;;;;;;5003800;28;20400;-77
2022/06/30 10:46:44;;;;;;;4.70;3.42;;;43.70;1.00;;;;;;5009339;28;20185;-76
2022/06/30 10:49:12;;;;;;;5.40;3.90;;;41.90;1.00;;;;;;5007961;28;20186;-76
2022/06/30 10:51:38;;;;;;;7.97;3.70;;;40.60;1.00;;;;;;5009678;28;20204;-76
2022/06/30 10:54:05;;;;;;;8.60;3.83;;;41.10;1.00;;;;;;5009362;28;20178;-76
2022/06/30 10:56:57;;;;;;;7.68;3.90;;;42.10;1.00;;;;;;5010637;28;20253;-76
2022/06/30 10:59:32;;;;;;;4.80;3.63;;;43.20;1.00;;;;;;5002747;28;20182;-76
2022/06/30 11:02:16;;;;;;;5.25;3.40;;;43.40;1.00;;;;;;4985414;28;20666;-76
2022/06/30 11:04:49;;;;;;;7.05;3.65;;;43.90;1.00;;;;;;5011852;28;20206;-76
2022/06/30 11:07:24;;;;;;;3.97;3.22;;;44.10;1.00;;;;;;5009203;28;20227;-76
2022/06/30 11:09:54;;;;;;;4.20;3.80;;;42.30;1.00;;;;;;5009926;28;20177;-76
2022/06/30 11:12:29;;;;;;;6.70;3.80;;;40.60;1.00;;;;;;4991183;28;20178;-76
2022/06/30 11:14:56;;;;;;;6.72;4.75;;;39.20;1.00;;;;;;4991629;28;20308;-76
2022/06/30 11:17:24;;;;;;;6.20;4.47;;;38.30;1.00;;;;;;5006101;28;20182;-76
2022/06/30 11:20:02;;;;;;;6.40;4.47;;;39.80;1.00;;;;;;4991272;28;20181;-76
2022/06/30 11:22:29;;;;;;;8.65;4.10;;;42.10;1.00;;;;;;5007648;28;20585;-77
2022/06/30 11:24:58;;;;;;;6.78;3.97;;;43.90;1.00;;;;;;5009642;28;20304;-76
2022/06/30 11:27:25;;;;;;;6.97;3.85;;;45.30;1.00;;;;;;5012907;28;20189;-77
2022/06/30 11:30:03;;;;;;;6.38;3.38;;;45.90;1.00;;;;;;5011941;28;20645;-77
2022/06/30 11:32:29;;;;;;;6.90;3.50;;;44.30;1.00;;;;;;5012310;28;20177;-76
2022/06/30 11:34:56;;;;;;;5.40;3.95;;;43.50;1.00;;;;;;5009245;28;20758;-77
2022/06/30 11:37:23;;;;;;;5.22;3.50;;;43.70;1.00;;;;;;4990245;28;20451;-77
2022/06/30 11:40:05;;;;;;;6.22;3.50;;;44.50;1.00;;;;;;4992678;28;20190;-77
2022/06/30 11:42:31;;;;;;;6.00;3.97;;;44.50;1.00;;;;;;5015115;28;20181;-76
2022/06/30 11:44:57;;;;;;;11.13;4.00;;;42.80;1.00;;;;;;4991178;28;20545;-76
2022/06/30 11:47:23;;;;;;;4.85;4.20;;;40.60;1.00;;;;;;5008557;28;20190;-76
2022/06/30 11:49:57;;;;;;;4.25;3.85;;;39.20;1.00;;;;;;5009350;28;20609;-76
2022/06/30 11:52:29;;;;;;;61.92;8.55;;;38.20;1.00;;;;;;5006704;28;20289;-76
2022/06/30 11:55:06;;;;;;;7.22;4.13;;;37.50;1.00;;;;;;5005421;28;20215;-76
2022/06/30 11:57:33;;;;;;;6.65;4.05;;;39.50;1.00;;;;;;5008792;28;20174;-76
2022/06/30 12:00:03;;;;;;;9.15;4.30;;;41.50;1.00;;;;;;5021540;28;20181;-76
2022/06/30 12:02:30;;;;;;;8.48;4.13;;;42.90;1.00;;;;;;5008071;28;20201;-76
2022/06/30 12:04:57;;;;;;;5.45;3.95;;;43.20;1.00;;;;;;4991784;28;20281;-76
2022/06/30 12:07:24;;;;;;;4.75;3.83;;;44.00;1.00;;;;;;4990094;28;20205;-77
2022/06/30 12:09:51;;;;;;;5.00;3.72;;;45.00;1.00;;;;;;4991117;28;20296;-77
2022/06/30 12:12:26;;;;;;;5.70;3.65;;;45.90;1.00;;;;;;5005412;28;20178;-76
2022/06/30 12:14:54;;;;;;;4.20;3.30;;;46.60;1.00;;;;;;5006744;28;21145;-76
2022/06/30 12:17:21;;;;;;;5.43;3.40;;;47.80;1.00;;;;;;5006425;28;20236;-77
2022/06/30 12:19:47;;;;;;;6.10;3.50;;;47.00;1.00;;;;;;5009746;28;20266;-77
2022/06/30 12:22:13;;;;;;;7.28;3.97;;;47.30;1.00;;;;;;5009493;28;20253;-77
2022/06/30 12:24:40;;;;;;;10.43;3.60;;;47.80;1.00;;;;;;4991902;28;20300;-77
2022/06/30 12:27:06;;;;;;;8.02;3.42;;;47.50;1.00;;;;;;5014060;28;20177;-77
2022/06/30 12:29:32;;;;;;;5.75;3.85;;;46.50;1.00;;;;;;5029488;28;20173;-77
2022/06/30 12:32:10;;;;;;;5.72;3.50;;;46.20;1.00;;;;;;5028605;28;20273;-77
2022/06/30 12:34:57;;;;;;;4.78;3.72;;;46.70;1.00;;;;;;5029459;28;20247;-77
2022/06/30 12:37:27;;;;;;;5.35;3.50;;;47.30;1.00;;;;;;5005000;28;20302;-77
2022/06/30 12:39:56;;;;;;;8.05;3.53;;;47.80;1.00;;;;;;4991412;28;20694;-77
2022/06/30 12:42:22;;;;;;;6.28;3.22;;;46.90;1.00;;;;;;5009230;28;20182;-77
2022/06/30 12:44:47;;;;;;;4.20;3.30;;;46.50;1.00;;;;;;4992401;28;20204;-77
2022/06/30 12:47:15;;;;;;;4.70;3.70;;;46.90;1.00;;;;;;5009372;28;20179;-77
2022/06/30 12:49:41;;;;;;;10.65;3.95;;;46.00;1.00;;;;;;4991706;28;20166;-77
2022/06/30 12:52:17;;;;;;;8.52;3.90;;;44.90;1.00;;;;;;4990633;28;20272;-77
2022/06/30 12:54:51;;;;;;;6.53;4.03;;;44.80;1.00;;;;;;5009386;28;20256;-76
2022/06/30 12:57:17;;;;;;;5.78;3.90;;;45.10;1.00;;;;;;5014989;28;20169;-77
2022/06/30 12:59:50;;;;;;;5.45;3.90;;;44.20;1.00;;;;;;5010287;28;20184;-76